Pleasant Lake, North Dakota
Current Conditions -  °F | °C
As of 1:35 PM on Saturday 25 Oct 2014 (Local Time) from KRUG Reporting Station
Clear Clear  
Wind Chill: 55°   Ceiling: Unl
Heat Index: 55°   Visibility: 10mi
Dew Point: 27°   Wind: 6mph
Humidity: 33%   Direction: 250°WSW
Pressure: 30.1"   Gusts: NA
Location:  48.2119°N, 99.9965°W
Report Text: KRUG 251835Z AUTO 25005KT 10SM CLR 13/M03 A3010 RMK AO2
Loading
Personal Weather Stations






























Interactive Weather Map
Tropical Storm Tracking
New forecast layout! Learn more

10-Day Weather Forecast

Advertisements
Track Severe Weather on mobile